sensor_id;sensor_type;location;lat;lon;timestamp;P1;durP1;ratioP1;P2;durP2;ratioP2
59145;SDS011;44928;53.074;6.646;2023-05-10T00:02:09;13.07;;;9.20;;
59145;SDS011;44928;53.074;6.646;2023-05-10T00:04:35;9.45;;;6.53;;
59145;SDS011;44928;53.074;6.646;2023-05-10T00:07:01;12.15;;;8.13;;
59145;SDS011;44928;53.074;6.646;2023-05-10T00:09:27;9.95;;;7.28;;
59145;SDS011;44928;53.074;6.646;2023-05-10T00:11:53;10.98;;;7.78;;
59145;SDS011;44928;53.074;6.646;2023-05-10T00:14:18;12.30;;;8.52;;
59145;SDS011;44928;53.074;6.646;2023-05-10T00:16:44;10.70;;;7.78;;
59145;SDS011;44928;53.074;6.646;2023-05-10T00:19:10;10.85;;;7.57;;
59145;SDS011;44928;53.074;6.646;2023-05-10T00:21:36;12.02;;;8.00;;
59145;SDS011;44928;53.074;6.646;2023-05-10T00:24:02;11.98;;;8.32;;
59145;SDS011;44928;53.074;6.646;2023-05-10T00:26:27;10.15;;;7.50;;
59145;SDS011;44928;53.074;6.646;2023-05-10T00:28:53;11.50;;;8.48;;
59145;SDS011;44928;53.074;6.646;2023-05-10T00:31:19;11.30;;;8.15;;
59145;SDS011;44928;53.074;6.646;2023-05-10T00:33:45;11.52;;;8.27;;
59145;SDS011;44928;53.074;6.646;2023-05-10T00:36:11;12.38;;;8.32;;
59145;SDS011;44928;53.074;6.646;2023-05-10T00:38:37;11.50;;;8.02;;
59145;SDS011;44928;53.074;6.646;2023-05-10T00:41:03;11.18;;;8.27;;
59145;SDS011;44928;53.074;6.646;2023-05-10T01:01:53;10.57;;;7.47;;
59145;SDS011;44928;53.074;6.646;2023-05-10T01:04:19;11.50;;;7.45;;
59145;SDS011;44928;53.074;6.646;2023-05-10T01:09:19;10.15;;;6.88;;
59145;SDS011;44928;53.074;6.646;2023-05-10T01:11:46;11.38;;;7.43;;
59145;SDS011;44928;53.074;6.646;2023-05-10T01:14:13;11.02;;;7.32;;
59145;SDS011;44928;53.074;6.646;2023-05-10T01:16:42;12.15;;;7.85;;
59145;SDS011;44928;53.074;6.646;2023-05-10T01:19:12;10.95;;;7.70;;
59145;SDS011;44928;53.074;6.646;2023-05-10T01:22:02;10.57;;;7.50;;
59145;SDS011;44928;53.074;6.646;2023-05-10T01:30:08;12.25;;;7.70;;
59145;SDS011;44928;53.074;6.646;2023-05-10T01:35:41;13.52;;;8.60;;
59145;SDS011;44928;53.074;6.646;2023-05-10T01:42:01;12.25;;;8.32;;
59145;SDS011;44928;53.074;6.646;2023-05-10T01:44:37;12.73;;;8.55;;
59145;SDS011;44928;53.074;6.646;2023-05-10T01:47:11;13.55;;;8.48;;
59145;SDS011;44928;53.074;6.646;2023-05-10T01:49:41;12.30;;;8.82;;
59145;SDS011;44928;53.074;6.646;2023-05-10T01:52:13;12.20;;;8.45;;
59145;SDS011;44928;53.074;6.646;2023-05-10T01:54:51;11.82;;;7.80;;
59145;SDS011;44928;53.074;6.646;2023-05-10T01:57:21;10.45;;;7.68;;
59145;SDS011;44928;53.074;6.646;2023-05-10T01:59:50;13.10;;;7.87;;
59145;SDS011;44928;53.074;6.646;2023-05-10T02:02:18;11.73;;;7.63;;
59145;SDS011;44928;53.074;6.646;2023-05-10T02:04:46;10.63;;;7.18;;
59145;SDS011;44928;53.074;6.646;2023-05-10T02:07:12;10.75;;;7.55;;
59145;SDS011;44928;53.074;6.646;2023-05-10T02:09:40;10.43;;;7.72;;
59145;SDS011;44928;53.074;6.646;2023-05-10T02:12:09;11.18;;;7.78;;
59145;SDS011;44928;53.074;6.646;2023-05-10T02:14:36;11.60;;;8.48;;
59145;SDS011;44928;53.074;6.646;2023-05-10T02:17:04;11.75;;;8.05;;
59145;SDS011;44928;53.074;6.646;2023-05-10T02:19:32;11.68;;;8.63;;
59145;SDS011;44928;53.074;6.646;2023-05-10T02:22:01;12.75;;;8.90;;
59145;SDS011;44928;53.074;6.646;2023-05-10T02:24:28;12.75;;;9.00;;
59145;SDS011;44928;53.074;6.646;2023-05-10T02:26:54;12.52;;;8.70;;
59145;SDS011;44928;53.074;6.646;2023-05-10T02:29:22;12.30;;;8.95;;
59145;SDS011;44928;53.074;6.646;2023-05-10T02:31:51;14.30;;;9.95;;
59145;SDS011;44928;53.074;6.646;2023-05-10T02:34:19;11.82;;;8.73;;
59145;SDS011;44928;53.074;6.646;2023-05-10T02:36:47;13.43;;;9.18;;
59145;SDS011;44928;53.074;6.646;2023-05-10T02:39:13;13.07;;;9.70;;
59145;SDS011;44928;53.074;6.646;2023-05-10T02:41:40;14.02;;;9.95;;
59145;SDS011;44928;53.074;6.646;2023-05-10T02:44:07;14.10;;;9.38;;
59145;SDS011;44928;53.074;6.646;2023-05-10T02:46:34;13.68;;;9.75;;
59145;SDS011;44928;53.074;6.646;2023-05-10T02:49:00;13.45;;;9.63;;
59145;SDS011;44928;53.074;6.646;2023-05-10T02:51:28;12.95;;;9.65;;
59145;SDS011;44928;53.074;6.646;2023-05-10T02:54:01;14.32;;;10.45;;
59145;SDS011;44928;53.074;6.646;2023-05-10T02:56:35;14.95;;;10.55;;
59145;SDS011;44928;53.074;6.646;2023-05-10T02:59:04;15.85;;;10.40;;
59145;SDS011;44928;53.074;6.646;2023-05-10T03:01:30;15.93;;;11.20;;
59145;SDS011;44928;53.074;6.646;2023-05-10T03:03:56;17.73;;;11.20;;
59145;SDS011;44928;53.074;6.646;2023-05-10T03:06:22;16.60;;;11.10;;
59145;SDS011;44928;53.074;6.646;2023-05-10T03:08:48;17.13;;;11.38;;
59145;SDS011;44928;53.074;6.646;2023-05-10T03:11:23;16.42;;;11.52;;
59145;SDS011;44928;53.074;6.646;2023-05-10T03:16:36;18.02;;;11.93;;
59145;SDS011;44928;53.074;6.646;2023-05-10T03:19:15;18.88;;;12.93;;
59145;SDS011;44928;53.074;6.646;2023-05-10T03:21:46;20.52;;;13.02;;
59145;SDS011;44928;53.074;6.646;2023-05-10T03:24:16;19.55;;;13.70;;
59145;SDS011;44928;53.074;6.646;2023-05-10T03:26:45;19.65;;;12.88;;
59145;SDS011;44928;53.074;6.646;2023-05-10T03:29:11;23.02;;;14.02;;
59145;SDS011;44928;53.074;6.646;2023-05-10T03:31:39;21.80;;;13.30;;
59145;SDS011;44928;53.074;6.646;2023-05-10T03:34:05;20.63;;;13.52;;
59145;SDS011;44928;53.074;6.646;2023-05-10T03:36:31;21.70;;;12.63;;
59145;SDS011;44928;53.074;6.646;2023-05-10T03:38:57;22.33;;;14.02;;
59145;SDS011;44928;53.074;6.646;2023-05-10T03:41:22;20.77;;;14.05;;
59145;SDS011;44928;53.074;6.646;2023-05-10T03:43:48;19.88;;;13.40;;
59145;SDS011;44928;53.074;6.646;2023-05-10T03:46:14;21.17;;;13.73;;
59145;SDS011;44928;53.074;6.646;2023-05-10T03:48:39;18.15;;;13.68;;
59145;SDS011;44928;53.074;6.646;2023-05-10T03:51:05;18.35;;;12.57;;
59145;SDS011;44928;53.074;6.646;2023-05-10T03:53:31;19.58;;;13.27;;
59145;SDS011;44928;53.074;6.646;2023-05-10T03:55:56;18.50;;;13.50;;
59145;SDS011;44928;53.074;6.646;2023-05-10T03:58:22;17.85;;;13.52;;
59145;SDS011;44928;53.074;6.646;2023-05-10T04:00:48;18.13;;;12.77;;
59145;SDS011;44928;53.074;6.646;2023-05-10T04:03:14;20.25;;;12.98;;
59145;SDS011;44928;53.074;6.646;2023-05-10T04:05:40;17.45;;;12.18;;
59145;SDS011;44928;53.074;6.646;2023-05-10T04:08:05;17.10;;;11.88;;
59145;SDS011;44928;53.074;6.646;2023-05-10T04:10:31;17.02;;;11.38;;
59145;SDS011;44928;53.074;6.646;2023-05-10T04:12:57;14.98;;;10.43;;
59145;SDS011;44928;53.074;6.646;2023-05-10T04:15:23;15.45;;;10.57;;
59145;SDS011;44928;53.074;6.646;2023-05-10T04:17:49;15.18;;;9.98;;
59145;SDS011;44928;53.074;6.646;2023-05-10T04:20:15;15.23;;;10.38;;
59145;SDS011;44928;53.074;6.646;2023-05-10T04:22:41;16.52;;;10.75;;
59145;SDS011;44928;53.074;6.646;2023-05-10T04:25:07;14.25;;;9.63;;
59145;SDS011;44928;53.074;6.646;2023-05-10T04:27:33;15.25;;;10.05;;
59145;SDS011;44928;53.074;6.646;2023-05-10T04:29:59;15.95;;;9.48;;
59145;SDS011;44928;53.074;6.646;2023-05-10T04:32:24;13.60;;;9.02;;
59145;SDS011;44928;53.074;6.646;2023-05-10T04:34:51;15.05;;;8.90;;
59145;SDS011;44928;53.074;6.646;2023-05-10T04:37:18;14.98;;;9.48;;
59145;SDS011;44928;53.074;6.646;2023-05-10T04:39:44;14.63;;;9.57;;
59145;SDS011;44928;53.074;6.646;2023-05-10T04:42:09;12.40;;;8.45;;
59145;SDS011;44928;53.074;6.646;2023-05-10T04:44:36;13.10;;;9.32;;
59145;SDS011;44928;53.074;6.646;2023-05-10T04:47:02;14.10;;;8.93;;
59145;SDS011;44928;53.074;6.646;2023-05-10T04:49:28;13.82;;;8.95;;
59145;SDS011;44928;53.074;6.646;2023-05-10T04:51:54;14.95;;;9.10;;
59145;SDS011;44928;53.074;6.646;2023-05-10T04:54:20;13.07;;;8.57;;
59145;SDS011;44928;53.074;6.646;2023-05-10T04:56:46;13.48;;;8.57;;
59145;SDS011;44928;53.074;6.646;2023-05-10T04:59:12;11.77;;;7.72;;
59145;SDS011;44928;53.074;6.646;2023-05-10T05:01:37;13.27;;;8.38;;
59145;SDS011;44928;53.074;6.646;2023-05-10T05:04:03;12.95;;;7.50;;
59145;SDS011;44928;53.074;6.646;2023-05-10T05:06:29;12.18;;;7.82;;
59145;SDS011;44928;53.074;6.646;2023-05-10T05:08:55;13.13;;;8.88;;
59145;SDS011;44928;53.074;6.646;2023-05-10T05:11:20;11.18;;;8.02;;
59145;SDS011;44928;53.074;6.646;2023-05-10T05:13:46;11.60;;;8.43;;
59145;SDS011;44928;53.074;6.646;2023-05-10T05:16:12;11.68;;;8.25;;
59145;SDS011;44928;53.074;6.646;2023-05-10T05:18:38;10.52;;;7.30;;
59145;SDS011;44928;53.074;6.646;2023-05-10T05:21:13;9.88;;;6.78;;
59145;SDS011;44928;53.074;6.646;2023-05-10T05:23:42;9.55;;;6.72;;
59145;SDS011;44928;53.074;6.646;2023-05-10T05:26:08;10.43;;;6.63;;
59145;SDS011;44928;53.074;6.646;2023-05-10T05:28:34;9.18;;;5.88;;
59145;SDS011;44928;53.074;6.646;2023-05-10T05:31:02;9.98;;;6.43;;
59145;SDS011;44928;53.074;6.646;2023-05-10T05:33:32;10.23;;;6.30;;
59145;SDS011;44928;53.074;6.646;2023-05-10T05:36:01;8.68;;;5.50;;
59145;SDS011;44928;53.074;6.646;2023-05-10T05:38:28;10.77;;;5.97;;
59145;SDS011;44928;53.074;6.646;2023-05-10T05:40:54;8.05;;;4.82;;
59145;SDS011;44928;53.074;6.646;2023-05-10T05:43:20;9.15;;;4.53;;
59145;SDS011;44928;53.074;6.646;2023-05-10T05:45:45;7.18;;;4.20;;
59145;SDS011;44928;53.074;6.646;2023-05-10T05:48:11;6.85;;;3.95;;
59145;SDS011;44928;53.074;6.646;2023-05-10T05:50:37;7.50;;;4.15;;
59145;SDS011;44928;53.074;6.646;2023-05-10T05:53:03;7.70;;;2.80;;
59145;SDS011;44928;53.074;6.646;2023-05-10T05:55:28;6.78;;;3.47;;
59145;SDS011;44928;53.074;6.646;2023-05-10T05:57:56;6.93;;;3.60;;
59145;SDS011;44928;53.074;6.646;2023-05-10T06:00:22;7.03;;;3.80;;
59145;SDS011;44928;53.074;6.646;2023-05-10T06:02:48;6.45;;;3.25;;
59145;SDS011;44928;53.074;6.646;2023-05-10T06:05:14;6.70;;;3.33;;
59145;SDS011;44928;53.074;6.646;2023-05-10T06:07:40;6.25;;;3.05;;
59145;SDS011;44928;53.074;6.646;2023-05-10T06:10:08;6.45;;;3.40;;
59145;SDS011;44928;53.074;6.646;2023-05-10T06:12:35;6.50;;;3.10;;
59145;SDS011;44928;53.074;6.646;2023-05-10T06:15:01;5.25;;;2.30;;
59145;SDS011;44928;53.074;6.646;2023-05-10T06:17:27;4.10;;;1.73;;
59145;SDS011;44928;53.074;6.646;2023-05-10T06:19:53;4.88;;;1.85;;
59145;SDS011;44928;53.074;6.646;2023-05-10T06:22:19;4.07;;;1.52;;
59145;SDS011;44928;53.074;6.646;2023-05-10T06:24:46;2.65;;;1.13;;
59145;SDS011;44928;53.074;6.646;2023-05-10T06:27:12;3.10;;;1.00;;
59145;SDS011;44928;53.074;6.646;2023-05-10T06:29:38;2.58;;;1.10;;
59145;SDS011;44928;53.074;6.646;2023-05-10T06:32:04;2.20;;;0.85;;
59145;SDS011;44928;53.074;6.646;2023-05-10T06:34:30;2.85;;;0.95;;
59145;SDS011;44928;53.074;6.646;2023-05-10T06:36:56;2.58;;;0.98;;
59145;SDS011;44928;53.074;6.646;2023-05-10T06:39:22;1.23;;;0.77;;
59145;SDS011;44928;53.074;6.646;2023-05-10T06:41:47;1.92;;;0.90;;
59145;SDS011;44928;53.074;6.646;2023-05-10T06:44:13;1.08;;;0.70;;
59145;SDS011;44928;53.074;6.646;2023-05-10T06:46:39;2.08;;;0.70;;
59145;SDS011;44928;53.074;6.646;2023-05-10T06:49:06;2.17;;;0.68;;
59145;SDS011;44928;53.074;6.646;2023-05-10T06:51:32;1.02;;;0.70;;
59145;SDS011;44928;53.074;6.646;2023-05-10T06:53:58;1.08;;;0.55;;
59145;SDS011;44928;53.074;6.646;2023-05-10T06:56:23;1.52;;;0.63;;
59145;SDS011;44928;53.074;6.646;2023-05-10T06:58:49;2.53;;;0.90;;
59145;SDS011;44928;53.074;6.646;2023-05-10T07:01:15;2.30;;;0.70;;
59145;SDS011;44928;53.074;6.646;2023-05-10T07:03:40;2.17;;;0.77;;
59145;SDS011;44928;53.074;6.646;2023-05-10T07:06:06;1.52;;;0.80;;
59145;SDS011;44928;53.074;6.646;2023-05-10T07:08:33;1.83;;;0.77;;
59145;SDS011;44928;53.074;6.646;2023-05-10T07:11:02;0.98;;;0.65;;
59145;SDS011;44928;53.074;6.646;2023-05-10T07:13:31;2.72;;;0.68;;
59145;SDS011;44928;53.074;6.646;2023-05-10T07:15:58;1.75;;;0.70;;
59145;SDS011;44928;53.074;6.646;2023-05-10T07:18:24;0.88;;;0.63;;
59145;SDS011;44928;53.074;6.646;2023-05-10T07:20:50;1.08;;;0.65;;
59145;SDS011;44928;53.074;6.646;2023-05-10T07:23:16;1.75;;;0.70;;
59145;SDS011;44928;53.074;6.646;2023-05-10T07:25:45;1.50;;;0.60;;
59145;SDS011;44928;53.074;6.646;2023-05-10T07:28:13;0.45;;;0.40;;
59145;SDS011;44928;53.074;6.646;2023-05-10T07:30:39;0.95;;;0.40;;
59145;SDS011;44928;53.074;6.646;2023-05-10T07:33:05;0.55;;;0.43;;
59145;SDS011;44928;53.074;6.646;2023-05-10T07:35:30;0.30;;;0.30;;
59145;SDS011;44928;53.074;6.646;2023-05-10T07:37:56;0.93;;;0.50;;
59145;SDS011;44928;53.074;6.646;2023-05-10T07:40:22;6.07;;;0.93;;
59145;SDS011;44928;53.074;6.646;2023-05-10T07:42:48;1.23;;;0.68;;
59145;SDS011;44928;53.074;6.646;2023-05-10T07:45:13;1.30;;;0.80;;
59145;SDS011;44928;53.074;6.646;2023-05-10T07:47:39;1.20;;;0.60;;
59145;SDS011;44928;53.074;6.646;2023-05-10T07:50:05;5.78;;;2.22;;
59145;SDS011;44928;53.074;6.646;2023-05-10T07:52:31;5.47;;;2.00;;
59145;SDS011;44928;53.074;6.646;2023-05-10T07:54:57;3.65;;;1.30;;
59145;SDS011;44928;53.074;6.646;2023-05-10T07:57:23;4.15;;;1.60;;
59145;SDS011;44928;53.074;6.646;2023-05-10T07:59:48;4.10;;;1.88;;
59145;SDS011;44928;53.074;6.646;2023-05-10T08:02:14;5.25;;;2.33;;
59145;SDS011;44928;53.074;6.646;2023-05-10T08:04:40;4.85;;;2.28;;
59145;SDS011;44928;53.074;6.646;2023-05-10T08:07:06;5.57;;;2.70;;
59145;SDS011;44928;53.074;6.646;2023-05-10T08:09:32;6.32;;;3.20;;
59145;SDS011;44928;53.074;6.646;2023-05-10T08:11:58;7.00;;;3.58;;
59145;SDS011;44928;53.074;6.646;2023-05-10T08:14:25;7.07;;;3.60;;
59145;SDS011;44928;53.074;6.646;2023-05-10T08:16:52;7.10;;;3.83;;
59145;SDS011;44928;53.074;6.646;2023-05-10T08:19:18;6.43;;;3.83;;
59145;SDS011;44928;53.074;6.646;2023-05-10T08:21:45;7.40;;;4.00;;
59145;SDS011;44928;53.074;6.646;2023-05-10T08:24:10;6.85;;;3.30;;
59145;SDS011;44928;53.074;6.646;2023-05-10T08:26:36;7.00;;;3.65;;
59145;SDS011;44928;53.074;6.646;2023-05-10T08:29:02;7.32;;;3.47;;
59145;SDS011;44928;53.074;6.646;2023-05-10T08:31:28;6.75;;;3.47;;
59145;SDS011;44928;53.074;6.646;2023-05-10T08:33:53;7.43;;;4.07;;
59145;SDS011;44928;53.074;6.646;2023-05-10T08:36:19;7.35;;;4.00;;
59145;SDS011;44928;53.074;6.646;2023-05-10T08:38:47;9.30;;;3.63;;
59145;SDS011;44928;53.074;6.646;2023-05-10T08:41:15;8.27;;;4.38;;
59145;SDS011;44928;53.074;6.646;2023-05-10T08:43:41;8.50;;;4.72;;
59145;SDS011;44928;53.074;6.646;2023-05-10T08:46:11;7.40;;;4.43;;
59145;SDS011;44928;53.074;6.646;2023-05-10T08:48:40;8.00;;;4.68;;
59145;SDS011;44928;53.074;6.646;2023-05-10T08:51:08;8.82;;;4.20;;
59145;SDS011;44928;53.074;6.646;2023-05-10T08:53:35;8.50;;;4.32;;
59145;SDS011;44928;53.074;6.646;2023-05-10T08:56:02;8.77;;;4.45;;
59145;SDS011;44928;53.074;6.646;2023-05-10T08:58:28;8.63;;;4.88;;
59145;SDS011;44928;53.074;6.646;2023-05-10T09:00:54;8.73;;;5.13;;
59145;SDS011;44928;53.074;6.646;2023-05-10T09:03:20;8.48;;;4.90;;
59145;SDS011;44928;53.074;6.646;2023-05-10T09:05:47;7.70;;;4.72;;
59145;SDS011;44928;53.074;6.646;2023-05-10T09:08:14;8.30;;;4.15;;
59145;SDS011;44928;53.074;6.646;2023-05-10T09:10:41;9.00;;;4.38;;
59145;SDS011;44928;53.074;6.646;2023-05-10T09:13:12;8.82;;;4.70;;
59145;SDS011;44928;53.074;6.646;2023-05-10T09:15:40;8.55;;;4.43;;
59145;SDS011;44928;53.074;6.646;2023-05-10T09:18:06;8.68;;;4.68;;
59145;SDS011;44928;53.074;6.646;2023-05-10T09:20:32;9.10;;;4.40;;
59145;SDS011;44928;53.074;6.646;2023-05-10T09:22:57;8.52;;;4.65;;
59145;SDS011;44928;53.074;6.646;2023-05-10T09:25:23;7.88;;;4.00;;
59145;SDS011;44928;53.074;6.646;2023-05-10T09:27:49;8.45;;;4.15;;
59145;SDS011;44928;53.074;6.646;2023-05-10T09:30:24;7.97;;;4.07;;
59145;SDS011;44928;53.074;6.646;2023-05-10T09:32:52;8.95;;;4.60;;
59145;SDS011;44928;53.074;6.646;2023-05-10T09:35:21;10.15;;;4.68;;
59145;SDS011;44928;53.074;6.646;2023-05-10T09:37:50;8.52;;;4.68;;
59145;SDS011;44928;53.074;6.646;2023-05-10T09:40:19;9.00;;;4.75;;
59145;SDS011;44928;53.074;6.646;2023-05-10T09:45:19;9.07;;;5.13;;
59145;SDS011;44928;53.074;6.646;2023-05-10T09:47:46;10.23;;;5.72;;
59145;SDS011;44928;53.074;6.646;2023-05-10T09:50:13;8.48;;;4.93;;
59145;SDS011;44928;53.074;6.646;2023-05-10T09:55:23;8.35;;;4.70;;
59145;SDS011;44928;53.074;6.646;2023-05-10T09:57:58;8.98;;;5.15;;
59145;SDS011;44928;53.074;6.646;2023-05-10T10:00:25;10.43;;;5.18;;
59145;SDS011;44928;53.074;6.646;2023-05-10T10:02:55;8.43;;;4.95;;
59145;SDS011;44928;53.074;6.646;2023-05-10T10:05:28;8.85;;;5.00;;
59145;SDS011;44928;53.074;6.646;2023-05-10T10:07:58;9.32;;;5.57;;
59145;SDS011;44928;53.074;6.646;2023-05-10T10:10:25;9.23;;;5.32;;
59145;SDS011;44928;53.074;6.646;2023-05-10T10:12:51;9.35;;;5.10;;
59145;SDS011;44928;53.074;6.646;2023-05-10T10:15:18;8.77;;;4.80;;
59145;SDS011;44928;53.074;6.646;2023-05-10T10:17:45;10.48;;;5.05;;
59145;SDS011;44928;53.074;6.646;2023-05-10T10:20:13;11.55;;;5.53;;
59145;SDS011;44928;53.074;6.646;2023-05-10T10:22:39;10.20;;;5.45;;
59145;SDS011;44928;53.074;6.646;2023-05-10T10:25:05;9.82;;;5.35;;
59145;SDS011;44928;53.074;6.646;2023-05-10T10:27:41;9.07;;;5.50;;
59145;SDS011;44928;53.074;6.646;2023-05-10T10:33:18;11.90;;;5.65;;
59145;SDS011;44928;53.074;6.646;2023-05-10T10:36:04;10.60;;;5.93;;
59145;SDS011;44928;53.074;6.646;2023-05-10T10:38:36;10.05;;;5.80;;
59145;SDS011;44928;53.074;6.646;2023-05-10T10:41:33;10.43;;;5.82;;
59145;SDS011;44928;53.074;6.646;2023-05-10T10:54:59;9.73;;;5.28;;
59145;SDS011;44928;53.074;6.646;2023-05-10T10:57:43;9.07;;;5.45;;
59145;SDS011;44928;53.074;6.646;2023-05-10T11:00:21;9.57;;;5.22;;
59145;SDS011;44928;53.074;6.646;2023-05-10T11:10:34;9.93;;;5.28;;
59145;SDS011;44928;53.074;6.646;2023-05-10T11:13:01;10.23;;;6.00;;
59145;SDS011;44928;53.074;6.646;2023-05-10T11:17:57;10.07;;;5.78;;
59145;SDS011;44928;53.074;6.646;2023-05-10T11:20:23;11.45;;;5.60;;
59145;SDS011;44928;53.074;6.646;2023-05-10T11:22:58;10.43;;;5.50;;
59145;SDS011;44928;53.074;6.646;2023-05-10T11:25:40;9.90;;;5.38;;
59145;SDS011;44928;53.074;6.646;2023-05-10T11:28:10;10.50;;;5.75;;
59145;SDS011;44928;53.074;6.646;2023-05-10T11:30:40;11.82;;;5.40;;
59145;SDS011;44928;53.074;6.646;2023-05-10T11:33:08;9.23;;;5.13;;
59145;SDS011;44928;53.074;6.646;2023-05-10T11:35:38;9.63;;;4.80;;
59145;SDS011;44928;53.074;6.646;2023-05-10T11:38:05;9.30;;;4.83;;
59145;SDS011;44928;53.074;6.646;2023-05-10T11:40:31;9.55;;;4.72;;
59145;SDS011;44928;53.074;6.646;2023-05-10T11:42:57;8.57;;;4.65;;
59145;SDS011;44928;53.074;6.646;2023-05-10T11:45:24;8.60;;;4.90;;
59145;SDS011;44928;53.074;6.646;2023-05-10T11:47:50;8.45;;;4.38;;
59145;SDS011;44928;53.074;6.646;2023-05-10T11:50:16;9.43;;;4.47;;
59145;SDS011;44928;53.074;6.646;2023-05-10T11:52:42;11.50;;;4.78;;
59145;SDS011;44928;53.074;6.646;2023-05-10T11:55:08;9.20;;;4.70;;
59145;SDS011;44928;53.074;6.646;2023-05-10T11:57:34;8.23;;;4.30;;
59145;SDS011;44928;53.074;6.646;2023-05-10T12:00:00;10.05;;;5.25;;
59145;SDS011;44928;53.074;6.646;2023-05-10T12:02:28;11.30;;;5.05;;
59145;SDS011;44928;53.074;6.646;2023-05-10T12:04:55;9.27;;;4.85;;
59145;SDS011;44928;53.074;6.646;2023-05-10T12:07:21;9.27;;;5.00;;
59145;SDS011;44928;53.074;6.646;2023-05-10T12:12:45;10.57;;;4.88;;
59145;SDS011;44928;53.074;6.646;2023-05-10T12:15:22;8.38;;;4.95;;
59145;SDS011;44928;53.074;6.646;2023-05-10T12:17:49;10.48;;;5.05;;
59145;SDS011;44928;53.074;6.646;2023-05-10T12:22:46;9.35;;;5.53;;
59145;SDS011;44928;53.074;6.646;2023-05-10T12:25:14;16.08;;;6.70;;
59145;SDS011;44928;53.074;6.646;2023-05-10T12:27:46;11.95;;;5.50;;
59145;SDS011;44928;53.074;6.646;2023-05-10T12:30:36;10.15;;;5.50;;
59145;SDS011;44928;53.074;6.646;2023-05-10T12:33:12;10.95;;;6.22;;
59145;SDS011;44928;53.074;6.646;2023-05-10T12:35:49;13.57;;;6.20;;
59145;SDS011;44928;53.074;6.646;2023-05-10T12:40:58;12.60;;;6.25;;
59145;SDS011;44928;53.074;6.646;2023-05-10T12:43:25;12.73;;;7.00;;
59145;SDS011;44928;53.074;6.646;2023-05-10T12:45:51;10.85;;;6.20;;
59145;SDS011;44928;53.074;6.646;2023-05-10T12:48:16;11.20;;;6.50;;
59145;SDS011;44928;53.074;6.646;2023-05-10T12:50:42;10.75;;;6.60;;
59145;SDS011;44928;53.074;6.646;2023-05-10T12:53:08;11.43;;;6.50;;
59145;SDS011;44928;53.074;6.646;2023-05-10T12:55:34;11.40;;;6.93;;
59145;SDS011;44928;53.074;6.646;2023-05-10T12:57:59;10.43;;;6.95;;
59145;SDS011;44928;53.074;6.646;2023-05-10T13:00:25;11.05;;;7.05;;
59145;SDS011;44928;53.074;6.646;2023-05-10T13:02:51;12.68;;;7.68;;
59145;SDS011;44928;53.074;6.646;2023-05-10T13:05:18;13.02;;;7.65;;
59145;SDS011;44928;53.074;6.646;2023-05-10T13:07:43;12.10;;;7.22;;
59145;SDS011;44928;53.074;6.646;2023-05-10T13:10:09;11.00;;;7.00;;
59145;SDS011;44928;53.074;6.646;2023-05-10T13:12:35;11.55;;;6.97;;
59145;SDS011;44928;53.074;6.646;2023-05-10T13:15:01;10.77;;;6.93;;
59145;SDS011;44928;53.074;6.646;2023-05-10T13:17:28;12.35;;;6.72;;
59145;SDS011;44928;53.074;6.646;2023-05-10T13:19:54;10.75;;;6.40;;
59145;SDS011;44928;53.074;6.646;2023-05-10T13:22:20;14.70;;;6.30;;
59145;SDS011;44928;53.074;6.646;2023-05-10T13:24:45;10.10;;;6.40;;
59145;SDS011;44928;53.074;6.646;2023-05-10T13:27:11;12.63;;;6.88;;
59145;SDS011;44928;53.074;6.646;2023-05-10T13:29:37;12.20;;;7.00;;
59145;SDS011;44928;53.074;6.646;2023-05-10T13:32:02;11.82;;;6.40;;
59145;SDS011;44928;53.074;6.646;2023-05-10T13:34:28;12.77;;;6.47;;
59145;SDS011;44928;53.074;6.646;2023-05-10T13:36:54;11.02;;;6.28;;
59145;SDS011;44928;53.074;6.646;2023-05-10T13:39:21;11.05;;;6.28;;
59145;SDS011;44928;53.074;6.646;2023-05-10T13:41:47;11.07;;;6.25;;
59145;SDS011;44928;53.074;6.646;2023-05-10T13:44:13;10.98;;;6.35;;
59145;SDS011;44928;53.074;6.646;2023-05-10T13:46:40;11.40;;;6.60;;
59145;SDS011;44928;53.074;6.646;2023-05-10T13:49:08;14.52;;;6.75;;
59145;SDS011;44928;53.074;6.646;2023-05-10T13:51:34;10.98;;;6.75;;
59145;SDS011;44928;53.074;6.646;2023-05-10T13:54:00;13.23;;;5.85;;
59145;SDS011;44928;53.074;6.646;2023-05-10T13:56:30;11.43;;;6.00;;
59145;SDS011;44928;53.074;6.646;2023-05-10T13:58:56;12.43;;;6.32;;
59145;SDS011;44928;53.074;6.646;2023-05-10T14:01:22;10.93;;;6.07;;
59145;SDS011;44928;53.074;6.646;2023-05-10T14:03:48;12.30;;;6.15;;
59145;SDS011;44928;53.074;6.646;2023-05-10T14:06:13;10.00;;;5.05;;
59145;SDS011;44928;53.074;6.646;2023-05-10T14:08:39;9.82;;;4.80;;
59145;SDS011;44928;53.074;6.646;2023-05-10T14:11:05;9.40;;;4.88;;
59145;SDS011;44928;53.074;6.646;2023-05-10T14:13:31;10.15;;;5.22;;
59145;SDS011;44928;53.074;6.646;2023-05-10T14:15:56;10.90;;;5.40;;
59145;SDS011;44928;53.074;6.646;2023-05-10T14:18:23;12.70;;;6.45;;
59145;SDS011;44928;53.074;6.646;2023-05-10T14:20:49;12.68;;;5.80;;
59145;SDS011;44928;53.074;6.646;2023-05-10T14:23:15;11.20;;;5.50;;
59145;SDS011;44928;53.074;6.646;2023-05-10T14:25:40;10.05;;;5.43;;
59145;SDS011;44928;53.074;6.646;2023-05-10T14:28:06;11.15;;;5.70;;
59145;SDS011;44928;53.074;6.646;2023-05-10T14:30:32;10.23;;;5.25;;
59145;SDS011;44928;53.074;6.646;2023-05-10T14:32:59;10.68;;;5.20;;
59145;SDS011;44928;53.074;6.646;2023-05-10T14:35:27;11.02;;;5.80;;
59145;SDS011;44928;53.074;6.646;2023-05-10T14:37:52;9.23;;;5.35;;
59145;SDS011;44928;53.074;6.646;2023-05-10T14:40:19;9.82;;;5.60;;
59145;SDS011;44928;53.074;6.646;2023-05-10T14:42:46;10.23;;;5.57;;
59145;SDS011;44928;53.074;6.646;2023-05-10T14:45:11;9.75;;;5.43;;
59145;SDS011;44928;53.074;6.646;2023-05-10T14:47:37;11.18;;;5.07;;
59145;SDS011;44928;53.074;6.646;2023-05-10T14:50:03;10.85;;;5.22;;
59145;SDS011;44928;53.074;6.646;2023-05-10T14:52:29;11.20;;;5.30;;
59145;SDS011;44928;53.074;6.646;2023-05-10T14:54:56;10.05;;;5.28;;
59145;SDS011;44928;53.074;6.646;2023-05-10T14:57:24;10.60;;;5.43;;
59145;SDS011;44928;53.074;6.646;2023-05-10T14:59:49;10.38;;;5.60;;
59145;SDS011;44928;53.074;6.646;2023-05-10T15:02:15;9.68;;;5.40;;
59145;SDS011;44928;53.074;6.646;2023-05-10T15:04:41;9.63;;;5.60;;
59145;SDS011;44928;53.074;6.646;2023-05-10T15:07:06;9.98;;;5.75;;
59145;SDS011;44928;53.074;6.646;2023-05-10T15:09:32;10.60;;;5.90;;
59145;SDS011;44928;53.074;6.646;2023-05-10T15:11:58;11.20;;;5.75;;
59145;SDS011;44928;53.074;6.646;2023-05-10T15:14:24;11.07;;;5.85;;
59145;SDS011;44928;53.074;6.646;2023-05-10T15:16:49;11.32;;;6.47;;
59145;SDS011;44928;53.074;6.646;2023-05-10T15:19:15;9.93;;;5.93;;
59145;SDS011;44928;53.074;6.646;2023-05-10T15:21:41;10.38;;;6.00;;
59145;SDS011;44928;53.074;6.646;2023-05-10T15:24:09;11.85;;;5.45;;
59145;SDS011;44928;53.074;6.646;2023-05-10T15:26:34;10.95;;;5.50;;
59145;SDS011;44928;53.074;6.646;2023-05-10T15:29:00;9.80;;;5.50;;
59145;SDS011;44928;53.074;6.646;2023-05-10T15:31:26;10.48;;;5.88;;
59145;SDS011;44928;53.074;6.646;2023-05-10T15:33:55;13.10;;;5.85;;
59145;SDS011;44928;53.074;6.646;2023-05-10T15:36:24;10.38;;;6.65;;
59145;SDS011;44928;53.074;6.646;2023-05-10T15:38:49;10.35;;;6.72;;
59145;SDS011;44928;53.074;6.646;2023-05-10T15:41:15;11.70;;;6.68;;
59145;SDS011;44928;53.074;6.646;2023-05-10T15:43:41;10.95;;;6.43;;
59145;SDS011;44928;53.074;6.646;2023-05-10T15:46:06;12.45;;;6.22;;
59145;SDS011;44928;53.074;6.646;2023-05-10T15:48:32;13.55;;;6.97;;
59145;SDS011;44928;53.074;6.646;2023-05-10T15:50:58;9.50;;;5.70;;
59145;SDS011;44928;53.074;6.646;2023-05-10T15:53:23;10.70;;;6.70;;